createdAt,value
2019-01-09T00:01:53.712Z,93.92
2019-01-09T00:04:20.454Z,94.08
2019-01-09T00:06:47.269Z,94.16
2019-01-09T00:09:13.960Z,93.66
2019-01-09T00:11:40.712Z,93.42
2019-01-09T00:14:07.452Z,93.32
2019-01-09T00:16:34.216Z,92.76
2019-01-09T00:19:01.020Z,93.24
2019-01-09T00:21:27.792Z,92.56
2019-01-09T00:23:54.608Z,92.20
2019-01-09T00:26:21.370Z,92.33
2019-01-09T00:28:48.108Z,92.60
2019-01-09T00:31:14.881Z,92.62
2019-01-09T00:33:41.614Z,93.36
2019-01-09T00:36:08.370Z,93.31
2019-01-09T00:38:35.101Z,93.09
2019-01-09T00:41:01.856Z,94.03
2019-01-09T00:43:28.604Z,94.95
2019-01-09T00:45:55.364Z,94.76
2019-01-09T00:48:22.116Z,95.39
2019-01-09T00:50:48.864Z,95.30
2019-01-09T00:53:15.624Z,95.83
2019-01-09T00:55:42.365Z,95.43
2019-01-09T00:58:09.096Z,94.65
2019-01-09T01:00:35.888Z,95.43
2019-01-09T01:03:33.656Z,95.13
2019-01-09T01:06:28.672Z,95.04
2019-01-09T01:09:21.101Z,94.39
2019-01-09T01:12:00.664Z,93.47
2019-01-09T01:14:48.273Z,93.75
2019-01-09T01:17:33.943Z,92.75
2019-01-09T01:20:12.240Z,93.02
2019-01-09T01:23:06.092Z,93.07
2019-01-09T01:25:49.856Z,92.90
2019-01-09T01:28:44.880Z,92.05
2019-01-09T01:31:36.008Z,92.25
2019-01-09T01:34:23.321Z,92.51
2019-01-09T01:37:08.616Z,92.57
2019-01-09T01:39:50.996Z,92.85
2019-01-09T01:42:30.257Z,92.58
2019-01-09T01:45:36.237Z,92.12
2019-01-09T01:48:30.360Z,92.18
2019-01-09T01:51:13.834Z,91.87
2019-01-09T01:53:53.192Z,91.58
2019-01-09T01:56:53.592Z,91.71
2019-01-09T01:59:33.040Z,91.52
2019-01-09T02:02:46.297Z,91.80
2019-01-09T02:05:39.437Z,91.98
2019-01-09T02:08:39.701Z,91.61
2019-01-09T02:11:37.104Z,91.63
2019-01-09T02:14:48.939Z,91.46
2019-01-09T02:17:28.748Z,91.69
2019-01-09T02:20:07.144Z,91.92
2019-01-09T02:23:07.724Z,91.49
2019-01-09T02:25:56.817Z,91.68
2019-01-09T02:28:40.368Z,92.10
2019-01-09T02:31:22.077Z,92.08
2019-01-09T02:33:48.837Z,91.96
2019-01-09T02:36:15.596Z,91.46
2019-01-09T02:38:42.333Z,92.10
2019-01-09T02:41:09.082Z,91.72
2019-01-09T02:43:35.823Z,91.74
2019-01-09T02:46:02.588Z,91.80
2019-01-09T02:48:29.341Z,90.91
2019-01-09T02:50:56.102Z,90.90
2019-01-09T02:53:22.834Z,91.30
2019-01-09T02:55:49.591Z,91.69
2019-01-09T02:58:16.348Z,91.23
2019-01-09T03:00:43.097Z,91.04
2019-01-09T03:03:09.829Z,91.51
2019-01-09T03:05:36.592Z,91.40
2019-01-09T03:08:03.320Z,91.37
2019-01-09T03:10:30.096Z,91.53
2019-01-09T03:12:56.853Z,91.12
2019-01-09T03:15:23.664Z,90.94
2019-01-09T03:17:50.415Z,91.27
2019-01-09T03:20:17.168Z,91.27
2019-01-09T03:22:43.895Z,91.12
2019-01-09T03:25:10.629Z,91.33
2019-01-09T03:27:37.382Z,90.93
2019-01-09T03:30:04.384Z,90.76
2019-01-09T03:32:31.134Z,91.09
2019-01-09T03:34:57.976Z,90.35
2019-01-09T03:37:24.731Z,90.51
2019-01-09T03:39:51.513Z,89.83
2019-01-09T03:42:18.282Z,90.35
2019-01-09T03:44:45.028Z,90.47
2019-01-09T03:47:11.781Z,90.50
2019-01-09T03:49:38.513Z,90.97
2019-01-09T03:52:05.303Z,90.98
2019-01-09T03:54:32.032Z,90.96
2019-01-09T03:56:58.779Z,91.01
2019-01-09T03:59:25.524Z,90.66
2019-01-09T04:01:52.277Z,90.71
2019-01-09T04:04:19.008Z,90.66
2019-01-09T04:06:45.776Z,90.62
2019-01-09T04:09:12.539Z,89.87
2019-01-09T04:11:39.299Z,89.33
2019-01-09T04:14:06.037Z,89.40
2019-01-09T04:16:32.799Z,89.18
2019-01-09T04:18:59.540Z,89.32
2019-01-09T04:21:26.386Z,89.10
2019-01-09T04:23:53.053Z,89.26
2019-01-09T04:26:19.822Z,89.04
2019-01-09T04:28:46.561Z,88.99
2019-01-09T04:31:13.326Z,88.03
2019-01-09T04:33:40.065Z,88.22
2019-01-09T04:36:06.830Z,88.43
2019-01-09T04:38:33.556Z,87.93
2019-01-09T04:41:00.308Z,88.29
2019-01-09T04:43:27.064Z,88.74
2019-01-09T04:45:53.808Z,88.76
2019-01-09T04:48:20.616Z,88.65
2019-01-09T04:50:47.348Z,88.63
2019-01-09T04:53:14.139Z,88.44
2019-01-09T04:55:40.896Z,87.84
2019-01-09T04:58:07.644Z,87.87
2019-01-09T05:00:34.380Z,87.61
2019-01-09T05:03:01.132Z,87.24
2019-01-09T05:05:27.881Z,87.58
2019-01-09T05:07:54.645Z,86.95
2019-01-09T05:10:21.412Z,86.87
2019-01-09T05:12:48.174Z,86.63
2019-01-09T05:15:14.902Z,86.52
2019-01-09T05:17:41.648Z,87.35
2019-01-09T05:20:08.385Z,87.19
2019-01-09T05:22:35.149Z,86.78
2019-01-09T05:25:01.973Z,86.28
2019-01-09T05:27:28.811Z,86.09
2019-01-09T05:29:55.524Z,86.41
2019-01-09T05:32:22.284Z,86.02
2019-01-09T05:34:49.045Z,85.97
2019-01-09T05:37:15.801Z,86.50
2019-01-09T05:39:42.535Z,86.58
2019-01-09T05:42:09.293Z,86.30
2019-01-09T05:44:36.032Z,86.10
2019-01-09T05:47:02.828Z,85.79
2019-01-09T05:49:29.590Z,86.02
2019-01-09T05:51:56.353Z,85.92
2019-01-09T05:54:23.096Z,86.65
2019-01-09T05:56:49.840Z,86.66
2019-01-09T05:59:16.817Z,85.83
2019-01-09T06:01:43.655Z,84.69
2019-01-09T06:04:10.436Z,85.55
2019-01-09T06:06:37.182Z,86.42
2019-01-09T06:09:05.262Z,86.71
2019-01-09T06:11:31.969Z,86.17
2019-01-09T06:13:58.826Z,87.37
2019-01-09T06:16:25.567Z,86.78
2019-01-09T06:18:52.639Z,85.97
2019-01-09T06:21:19.292Z,86.41
2019-01-09T06:23:46.060Z,85.64
2019-01-09T06:26:12.792Z,85.69
2019-01-09T06:28:39.560Z,85.78
2019-01-09T06:31:06.306Z,86.05
2019-01-09T06:33:33.080Z,86.20
2019-01-09T06:35:59.828Z,87.65
2019-01-09T06:38:26.588Z,87.24
2019-01-09T06:40:53.336Z,87.96
2019-01-09T06:43:20.091Z,88.27
2019-01-09T06:45:46.844Z,89.54
2019-01-09T06:48:13.624Z,89.48
2019-01-09T06:50:40.425Z,90.25
2019-01-09T06:53:07.187Z,90.47
2019-01-09T06:55:33.944Z,90.23
2019-01-09T06:58:00.708Z,90.17
2019-01-09T07:00:27.448Z,90.37
2019-01-09T07:02:54.224Z,91.08
2019-01-09T07:05:20.981Z,91.09
2019-01-09T07:07:47.757Z,91.22
2019-01-09T07:10:14.532Z,91.47
2019-01-09T07:12:41.272Z,91.27
2019-01-09T07:15:11.782Z,91.19
2019-01-09T07:17:34.826Z,91.35
2019-01-09T07:20:01.647Z,91.05
2019-01-09T07:22:28.334Z,90.63
2019-01-09T07:24:55.097Z,90.19
2019-01-09T07:27:21.852Z,90.39
2019-01-09T07:29:48.620Z,88.38
2019-01-09T07:32:15.365Z,86.40
2019-01-09T07:34:42.132Z,86.44
2019-01-09T07:37:08.868Z,85.76
2019-01-09T07:39:35.648Z,85.75
2019-01-09T07:42:02.477Z,84.88
2019-01-09T07:44:29.243Z,84.20
2019-01-09T07:46:55.999Z,86.00
2019-01-09T07:49:22.764Z,84.80
2019-01-09T07:51:49.516Z,84.54
2019-01-09T07:54:16.284Z,84.40
2019-01-09T07:56:43.035Z,82.94
2019-01-09T07:59:09.784Z,84.42
2019-01-09T08:01:36.532Z,85.02
2019-01-09T08:04:03.285Z,85.73
2019-01-09T08:06:30.040Z,86.73
2019-01-09T08:08:56.805Z,83.75
2019-01-09T08:11:23.553Z,80.64
2019-01-09T08:13:50.316Z,80.74
2019-01-09T08:16:17.068Z,82.19
2019-01-09T08:18:43.869Z,79.98
2019-01-09T08:21:10.619Z,80.42
2019-01-09T08:23:37.368Z,79.39
2019-01-09T08:26:04.119Z,79.56
2019-01-09T08:28:30.884Z,80.09
2019-01-09T08:30:57.635Z,80.08
2019-01-09T08:33:24.373Z,82.16
2019-01-09T08:35:51.128Z,81.28
2019-01-09T08:38:17.875Z,81.85
2019-01-09T08:40:44.650Z,81.53
2019-01-09T08:43:11.404Z,79.58
2019-01-09T08:45:38.241Z,81.80
2019-01-09T08:48:04.980Z,82.62
2019-01-09T08:50:31.735Z,81.66
2019-01-09T08:52:58.473Z,82.99
2019-01-09T08:55:25.239Z,82.26
2019-01-09T08:57:51.967Z,82.22
2019-01-09T09:00:18.740Z,83.18
2019-01-09T09:02:45.496Z,83.71
2019-01-09T09:05:12.249Z,81.84
2019-01-09T09:07:39.556Z,81.79
2019-01-09T09:10:07.660Z,81.30
2019-01-09T09:12:34.421Z,81.76
2019-01-09T09:15:01.176Z,81.85
2019-01-09T09:17:27.925Z,81.46
2019-01-09T09:19:54.684Z,81.74
2019-01-09T09:22:21.427Z,81.27
2019-01-09T09:24:48.191Z,80.75
2019-01-09T09:27:14.950Z,82.29
2019-01-09T09:29:41.710Z,80.93
2019-01-09T09:32:08.448Z,81.55
2019-01-09T09:34:35.209Z,81.85
2019-01-09T09:37:01.960Z,81.80
2019-01-09T09:39:28.721Z,81.20
2019-01-09T09:41:55.476Z,80.88
2019-01-09T09:44:22.244Z,81.80
2019-01-09T09:46:49.087Z,81.55
2019-01-09T09:49:17.078Z,81.96
2019-01-09T09:51:42.603Z,82.61
2019-01-09T09:54:09.352Z,81.81
2019-01-09T09:56:36.128Z,81.02
2019-01-09T09:59:02.925Z,79.49
2019-01-09T10:01:29.700Z,81.45
2019-01-09T10:03:56.461Z,80.66
2019-01-09T10:06:23.249Z,80.59
2019-01-09T10:08:50.014Z,79.08
2019-01-09T10:11:16.786Z,80.42
2019-01-09T10:13:43.544Z,80.28
2019-01-09T10:16:10.300Z,79.50
2019-01-09T10:18:37.054Z,79.77
2019-01-09T10:21:04.081Z,80.66
2019-01-09T10:23:30.833Z,80.69
2019-01-09T10:25:57.703Z,79.01
2019-01-09T10:28:24.440Z,79.40
2019-01-09T10:30:51.209Z,80.33
2019-01-09T10:33:17.944Z,80.06
2019-01-09T10:35:44.765Z,79.29
2019-01-09T10:38:11.497Z,78.99
2019-01-09T10:40:38.272Z,78.83
2019-01-09T10:43:05.028Z,79.64
2019-01-09T10:45:31.789Z,78.38
2019-01-09T10:47:58.754Z,78.86
2019-01-09T10:50:25.508Z,78.28
2019-01-09T10:52:52.271Z,77.86
2019-01-09T10:55:19.039Z,79.97
2019-01-09T10:57:45.776Z,79.80
2019-01-09T11:00:17.167Z,78.92
2019-01-09T11:02:43.973Z,79.20
2019-01-09T11:05:10.801Z,79.10
2019-01-09T11:07:37.560Z,79.80
2019-01-09T11:10:04.593Z,79.95
2019-01-09T11:12:31.377Z,79.71
2019-01-09T11:14:58.120Z,80.91
2019-01-09T11:17:24.876Z,79.70
2019-01-09T11:19:51.628Z,79.26
2019-01-09T11:22:18.392Z,77.55
2019-01-09T11:24:45.187Z,79.89
2019-01-09T11:27:11.900Z,79.82
2019-01-09T11:29:38.640Z,80.08
2019-01-09T11:32:05.403Z,79.71
2019-01-09T11:34:32.156Z,79.39
2019-01-09T11:36:58.986Z,80.71
2019-01-09T11:39:25.741Z,79.48
2019-01-09T11:41:52.588Z,80.84
2019-01-09T11:44:19.336Z,81.12
2019-01-09T11:46:46.104Z,81.68
2019-01-09T11:49:12.849Z,84.08
2019-01-09T11:51:39.626Z,86.80
2019-01-09T11:54:06.366Z,87.85
2019-01-09T11:56:33.140Z,87.33
2019-01-09T11:58:59.903Z,87.18
2019-01-09T12:01:26.669Z,86.61
2019-01-09T12:03:53.421Z,84.53
2019-01-09T12:06:20.213Z,83.63
2019-01-09T12:08:46.949Z,82.52
2019-01-09T12:11:13.713Z,81.58
2019-01-09T12:13:40.459Z,80.30
2019-01-09T12:16:08.132Z,81.07
2019-01-09T12:18:33.973Z,81.90
2019-01-09T12:21:00.817Z,81.76
2019-01-09T12:23:27.496Z,81.79
2019-01-09T12:25:54.247Z,80.20
2019-01-09T12:28:21.005Z,78.26
2019-01-09T12:30:47.748Z,79.12
2019-01-09T12:33:14.512Z,77.28
2019-01-09T12:35:41.248Z,78.69
2019-01-09T12:38:08.056Z,80.67
2019-01-09T12:40:34.804Z,75.60
2019-01-09T12:43:01.564Z,76.31
2019-01-09T12:45:28.305Z,75.65
2019-01-09T12:47:55.068Z,75.51
2019-01-09T12:50:23.500Z,76.42
2019-01-09T12:52:50.276Z,76.40
2019-01-09T12:55:17.029Z,76.03
2019-01-09T12:57:43.801Z,74.97
2019-01-09T13:00:14.724Z,76.61
2019-01-09T13:02:41.493Z,75.53
2019-01-09T13:05:08.252Z,75.64
2019-01-09T13:07:35.016Z,72.66
2019-01-09T13:10:01.757Z,73.14
2019-01-09T13:12:28.509Z,73.40
2019-01-09T13:14:55.240Z,73.56
2019-01-09T13:17:22.001Z,76.01
2019-01-09T13:19:48.763Z,76.63
2019-01-09T13:22:15.629Z,75.78
2019-01-09T13:24:42.368Z,76.17
2019-01-09T13:27:09.124Z,75.73
2019-01-09T13:29:35.873Z,75.30
2019-01-09T13:32:02.665Z,74.05
2019-01-09T13:34:29.401Z,73.82
2019-01-09T13:36:56.167Z,70.06
2019-01-09T13:39:30.525Z,72.04
2019-01-09T13:41:49.756Z,69.81
2019-01-09T13:44:16.505Z,67.58
2019-01-09T13:46:43.260Z,67.36
2019-01-09T13:49:10.012Z,66.60
2019-01-09T13:51:36.801Z,63.06
2019-01-09T13:54:03.550Z,64.66
2019-01-09T13:56:30.312Z,65.10
2019-01-09T13:58:57.092Z,61.58
2019-01-09T14:01:23.853Z,61.80
2019-01-09T14:03:50.616Z,62.92
2019-01-09T14:06:17.370Z,66.73
2019-01-09T14:08:44.124Z,66.20
2019-01-09T14:11:10.872Z,65.93
2019-01-09T14:13:37.644Z,63.46
2019-01-09T14:16:04.400Z,65.48
2019-01-09T14:18:31.173Z,64.36
2019-01-09T14:20:57.924Z,64.77
2019-01-09T14:23:24.688Z,64.07
2019-01-09T14:25:51.448Z,64.98
2019-01-09T14:28:18.210Z,64.70
2019-01-09T14:30:44.984Z,64.85
2019-01-09T14:33:11.771Z,64.15
2019-01-09T14:35:38.516Z,65.66
2019-01-09T14:38:05.400Z,66.12
2019-01-09T14:40:32.149Z,66.16
2019-01-09T14:43:00.528Z,67.84
2019-01-09T14:45:27.256Z,66.57
2019-01-09T14:47:54.092Z,68.53
2019-01-09T14:50:22.364Z,68.30
2019-01-09T14:52:49.220Z,68.59
2019-01-09T14:55:16.194Z,71.27
2019-01-09T14:57:43.132Z,71.65
2019-01-09T15:00:13.272Z,71.29
2019-01-09T15:02:40.061Z,72.55
2019-01-09T15:05:07.075Z,70.90
2019-01-09T15:07:33.861Z,69.55
2019-01-09T15:10:00.610Z,67.11
2019-01-09T15:12:27.373Z,69.23
2019-01-09T15:14:56.232Z,67.07
2019-01-09T15:17:22.952Z,67.83
2019-01-09T15:19:49.783Z,67.45
2019-01-09T15:22:16.668Z,70.43
2019-01-09T15:24:43.412Z,68.89
2019-01-09T15:27:10.146Z,68.99
2019-01-09T15:29:36.908Z,70.76
2019-01-09T15:32:03.651Z,70.49
2019-01-09T15:34:30.456Z,69.78
2019-01-09T15:36:57.192Z,71.34
2019-01-09T15:39:23.956Z,70.91
2019-01-09T15:41:50.700Z,69.88
2019-01-09T15:44:17.602Z,69.84
2019-01-09T15:46:45.023Z,70.97
2019-01-09T15:49:11.780Z,70.75
2019-01-09T15:51:38.719Z,69.48
2019-01-09T15:54:05.397Z,69.79
2019-01-09T15:56:32.133Z,70.33
2019-01-09T15:58:58.896Z,72.31
2019-01-09T16:01:25.636Z,73.51
2019-01-09T16:03:52.453Z,73.14
2019-01-09T16:06:19.196Z,74.41
2019-01-09T16:08:45.936Z,76.01
2019-01-09T16:11:12.685Z,76.28
2019-01-09T16:13:39.517Z,76.46
2019-01-09T16:16:06.340Z,76.65
2019-01-09T16:18:33.093Z,73.81
2019-01-09T16:20:59.969Z,76.38
2019-01-09T16:23:26.745Z,75.18
2019-01-09T16:25:53.493Z,74.87
2019-01-09T16:28:20.370Z,74.97
2019-01-09T16:30:59.245Z,78.42
2019-01-09T16:33:26.025Z,80.90
2019-01-09T16:35:52.772Z,80.84
2019-01-09T16:38:19.520Z,83.20
2019-01-09T16:40:46.276Z,83.05
2019-01-09T16:43:13.030Z,85.25
2019-01-09T16:45:39.825Z,86.71
2019-01-09T16:48:06.562Z,87.82
2019-01-09T16:50:33.329Z,87.64
2019-01-09T16:53:00.068Z,88.75
2019-01-09T16:55:26.828Z,87.90
2019-01-09T16:57:53.624Z,87.99
2019-01-09T17:00:22.976Z,89.02
2019-01-09T17:02:49.727Z,89.38
2019-01-09T17:05:16.493Z,89.79
2019-01-09T17:07:43.244Z,90.92
2019-01-09T17:10:10.533Z,91.49
2019-01-09T17:12:37.398Z,92.09
2019-01-09T17:15:04.248Z,92.89
2019-01-09T17:17:31.008Z,93.53
2019-01-09T17:19:57.798Z,93.70
2019-01-09T17:22:24.541Z,93.55
2019-01-09T17:24:51.320Z,93.52
2019-01-09T17:27:18.176Z,93.79
2019-01-09T17:29:44.960Z,93.80
2019-01-09T17:32:11.809Z,93.96
2019-01-09T17:34:38.589Z,93.89
2019-01-09T17:37:05.337Z,93.09
2019-01-09T17:39:32.212Z,91.37
2019-01-09T17:41:59.117Z,90.70
2019-01-09T17:44:25.885Z,91.36
2019-01-09T17:46:52.708Z,90.92
2019-01-09T17:49:19.465Z,91.55
2019-01-09T17:51:46.213Z,90.79
2019-01-09T17:54:13.009Z,89.70
2019-01-09T17:56:39.767Z,90.93
2019-01-09T17:59:06.994Z,89.51
2019-01-09T18:01:33.789Z,89.67
2019-01-09T18:04:00.524Z,89.27
2019-01-09T18:06:27.272Z,89.06
2019-01-09T18:08:54.017Z,89.17
2019-01-09T18:11:20.788Z,89.42
2019-01-09T18:13:47.568Z,88.19
2019-01-09T18:16:14.424Z,88.79
2019-01-09T18:18:41.260Z,89.06
2019-01-09T18:21:08.025Z,89.05
2019-01-09T18:23:34.768Z,89.56
2019-01-09T18:26:01.593Z,88.85
2019-01-09T18:28:28.417Z,89.55
2019-01-09T18:31:23.512Z,89.12
2019-01-09T18:34:00.159Z,88.41
2019-01-09T18:36:37.086Z,88.83
2019-01-09T18:39:19.033Z,88.19
2019-01-09T18:41:57.417Z,88.83
2019-01-09T18:44:30.558Z,88.61
2019-01-09T18:47:39.495Z,86.86
2019-01-09T18:50:51.645Z,87.81
2019-01-09T18:53:26.527Z,88.45
2019-01-09T18:55:53.297Z,88.66
2019-01-09T18:58:20.112Z,87.57
2019-01-09T19:00:46.880Z,87.60
2019-01-09T19:03:13.633Z,88.47
2019-01-09T19:05:40.456Z,88.79
2019-01-09T19:08:07.203Z,87.83
2019-01-09T19:10:33.956Z,88.62
2019-01-09T19:13:00.698Z,88.64
2019-01-09T19:15:27.525Z,87.78
2019-01-09T19:17:54.261Z,87.39
2019-01-09T19:20:21.128Z,88.28
2019-01-09T19:22:47.873Z,88.31
2019-01-09T19:25:14.943Z,85.54
2019-01-09T19:27:41.673Z,84.98
2019-01-09T19:30:14.414Z,83.46
2019-01-09T19:32:41.141Z,82.58
2019-01-09T19:35:07.909Z,81.38
2019-01-09T19:37:34.715Z,81.93
2019-01-09T19:40:01.611Z,82.52
2019-01-09T19:42:28.360Z,82.12
2019-01-09T19:44:55.148Z,81.95
2019-01-09T19:47:21.896Z,82.24
2019-01-09T19:49:48.673Z,80.99
2019-01-09T19:52:15.408Z,79.13
2019-01-09T19:54:42.164Z,79.64
2019-01-09T19:57:08.931Z,79.84
2019-01-09T19:59:35.676Z,78.94
2019-01-09T20:02:02.442Z,79.43
2019-01-09T20:04:29.181Z,80.54
2019-01-09T20:06:55.920Z,80.26
2019-01-09T20:09:22.652Z,80.25
2019-01-09T20:11:49.431Z,81.15
2019-01-09T20:14:16.170Z,81.49
2019-01-09T20:16:42.924Z,79.69
2019-01-09T20:19:09.656Z,78.33
2019-01-09T20:21:36.404Z,78.58
2019-01-09T20:24:03.159Z,80.02
2019-01-09T20:26:29.996Z,80.52
2019-01-09T20:28:56.672Z,80.21
2019-01-09T20:31:23.484Z,79.90
2019-01-09T20:33:50.204Z,81.34
2019-01-09T20:38:57.112Z,80.72
2019-01-09T20:41:23.916Z,80.55
2019-01-09T20:43:50.648Z,81.29
2019-01-09T20:46:17.480Z,80.23
2019-01-09T20:48:44.239Z,80.37
2019-01-09T20:51:11.013Z,80.62
2019-01-09T20:53:37.884Z,79.81
2019-01-09T20:56:04.518Z,80.26
2019-01-09T20:58:31.284Z,80.21
2019-01-09T21:00:58.057Z,79.91
2019-01-09T21:03:24.818Z,79.98
2019-01-09T21:05:51.919Z,80.07
2019-01-09T21:08:18.673Z,80.42
2019-01-09T21:10:45.452Z,80.96
2019-01-09T21:13:12.231Z,81.39
2019-01-09T21:15:38.937Z,81.65
2019-01-09T21:18:05.696Z,81.28
2019-01-09T21:20:32.449Z,81.75
2019-01-09T21:22:59.220Z,80.73
2019-01-09T21:25:25.964Z,80.79
2019-01-09T21:27:52.733Z,78.79
2019-01-09T21:30:20.929Z,79.79
2019-01-09T21:32:47.692Z,79.24
2019-01-09T21:35:14.456Z,78.28
2019-01-09T21:37:41.225Z,78.71
2019-01-09T21:40:13.000Z,78.24
2019-01-09T21:42:39.752Z,80.18
2019-01-09T21:45:07.320Z,80.13
2019-01-09T21:47:34.085Z,80.36
2019-01-09T21:50:00.836Z,80.50
2019-01-09T21:52:27.609Z,80.20
2019-01-09T21:54:54.375Z,79.74
2019-01-09T21:57:21.136Z,80.42
2019-01-09T21:59:47.894Z,82.13
2019-01-09T22:02:14.690Z,82.33
2019-01-09T22:04:41.428Z,83.11
2019-01-09T22:07:08.196Z,83.14
2019-01-09T22:09:34.957Z,84.27
2019-01-09T22:12:02.496Z,85.52
2019-01-09T22:14:28.480Z,85.03
2019-01-09T22:16:55.236Z,85.58
2019-01-09T22:19:22.078Z,86.89
2019-01-09T22:21:48.830Z,87.44
2019-01-09T22:24:15.580Z,88.09
2019-01-09T22:26:42.336Z,86.86
2019-01-09T22:29:09.125Z,87.95
2019-01-09T22:31:35.889Z,87.45
2019-01-09T22:34:02.637Z,86.96
2019-01-09T22:36:29.400Z,87.14
2019-01-09T22:38:56.144Z,86.82
2019-01-09T22:41:22.886Z,86.87
2019-01-09T22:43:49.636Z,86.37
2019-01-09T22:46:16.384Z,85.37
2019-01-09T22:48:43.129Z,85.63
2019-01-09T22:51:09.889Z,85.38
2019-01-09T22:53:36.632Z,84.86
2019-01-09T22:56:03.404Z,85.03
2019-01-09T22:58:30.140Z,84.73
2019-01-09T23:01:02.292Z,85.93
2019-01-09T23:03:29.664Z,85.81
2019-01-09T23:05:56.411Z,85.79
2019-01-09T23:08:23.201Z,85.92
2019-01-09T23:10:55.024Z,85.27
2019-01-09T23:13:16.724Z,85.50
2019-01-09T23:15:43.484Z,85.47
2019-01-09T23:18:10.233Z,85.84
2019-01-09T23:20:36.981Z,85.38
2019-01-09T23:23:03.780Z,86.23
2019-01-09T23:25:30.521Z,85.91
2019-01-09T23:27:57.292Z,87.03
2019-01-09T23:30:24.035Z,85.47
2019-01-09T23:32:50.796Z,84.92
2019-01-09T23:35:17.560Z,85.47
2019-01-09T23:37:44.329Z,85.04
2019-01-09T23:40:11.150Z,85.40
2019-01-09T23:42:37.908Z,85.24
2019-01-09T23:45:05.519Z,86.08
2019-01-09T23:47:32.325Z,86.05
2019-01-09T23:49:59.136Z,86.77
2019-01-09T23:52:25.888Z,85.93
2019-01-09T23:54:52.636Z,84.38
2019-01-09T23:57:19.404Z,84.59
2019-01-09T23:59:46.147Z,84.14
